Portada
METAR-TAF:

METAR-TAF

Aeroports :

Aeroport de Trapani-Birgi

Trapani, Itàlia

latitud: 37-55N, longitud: 012-30E, altitud: 7 m

Observació

L'informe es va fer fa 34 minuts, a les 23:55 UTC
Vent 2 kt amb direcció variable
Temperatura 23°C
Humitat 89%
Pressió 1015 hPa
Visibilitat 10 km o més
sense núvols per sota de 1500 mi sense presència de cumulonimbus.

METAR: LICT 182355Z VRB02KT CAVOK 23/21 Q1015 RMK SKC VIS MIN 9999 WIND THR13 02007KT BLU

Hora: 02:29 (00:29 UTC)

Pronòstic

L'informe es va fer fa 1 hora i 29 minuts, a les 23:00 UTC
Pronòstic vàlid del 19 a les 00 UTC al 19 a les 09 UTC
Vent 5 kt del Nord-Est
Visibilitat 10 km o més
sense núvols per sota de 1500 mi sense presència de cumulonimbus.
Evolucionant progressivament
l' 19 a les 07 UTC al 19 a les 09 UTC
Vent 12 kt del Nord

TAF: LICT 182300Z 1900/1909 04005KT CAVOK BECMG 1907/1909 35012KT

Observacions i pronòstics meteorològics de més de 4000 aeroports (METAR i TAF).

Les estacions disponibles són els punts grocs i vermells al mapa.

Posi el ratolí al punt desitjat per veure el nom de l'estació.

Feu clic per veure les observacions i els pronòstics meteorològics.

Per canviar el mapa: feu clic els botons verds amb una creu de color negre per apropar; al botó verd amb un guió per allunyar la imatge; o en les fletxes verdes per a mapes adjacents.


METAR-TAF: